createdAt,value
2022-08-23T00:02:29.062Z,99612.81
2022-08-23T00:05:09.185Z,99611.03
2022-08-23T00:07:41.910Z,99605.50
2022-08-23T00:10:15.075Z,99610.16
2022-08-23T00:12:46.386Z,99604.50
2022-08-23T00:15:18.316Z,99599.06
2022-08-23T00:17:47.846Z,99597.44
2022-08-23T00:20:20.356Z,99596.50
2022-08-23T00:22:49.285Z,99591.88
2022-08-23T00:25:18.882Z,99592.88
2022-08-23T00:27:50.168Z,99602.56
2022-08-23T00:30:20.358Z,99600.47
2022-08-23T00:32:51.681Z,99600.97
2022-08-23T00:35:28.465Z,99597.22
2022-08-23T00:38:32.372Z,99596.63
2022-08-23T00:40:52.820Z,99600.03
2022-08-23T00:43:50.792Z,99609.81
2022-08-23T00:46:52.868Z,99611.94
2022-08-23T00:49:22.016Z,99614.91
2022-08-23T00:52:01.887Z,99615.19
2022-08-23T00:54:32.090Z,99618.31
2022-08-23T00:57:06.105Z,99615.06
2022-08-23T00:59:37.246Z,99621.69
2022-08-23T01:02:09.443Z,99620.72
2022-08-23T01:04:41.226Z,99618.88
2022-08-23T01:07:16.092Z,99628.31
2022-08-23T01:09:45.156Z,99626.28
2022-08-23T01:12:22.003Z,99628.47
2022-08-23T01:15:16.517Z,99635.28
2022-08-23T01:17:49.904Z,99636.66
2022-08-23T01:20:22.504Z,99631.44
2022-08-23T01:23:17.112Z,99630.69
2022-08-23T01:25:45.166Z,99639.53
2022-08-23T01:28:14.364Z,99638.31
2022-08-23T01:30:46.946Z,99638.66
2022-08-23T01:33:18.506Z,99641.22
2022-08-23T01:35:53.830Z,99637.34
2022-08-23T01:38:23.870Z,99650.22
2022-08-23T01:40:52.978Z,99648.81
2022-08-23T01:43:23.849Z,99649.19
2022-08-23T01:45:52.691Z,99650.72
2022-08-23T01:48:22.752Z,99649.03
2022-08-23T01:50:52.297Z,99646.88
2022-08-23T01:53:20.525Z,99650.63
2022-08-23T01:55:49.139Z,99654.44
2022-08-23T01:58:18.861Z,99655.19
2022-08-23T02:00:47.326Z,99649.66
2022-08-23T02:03:18.872Z,99653.03
2022-08-23T02:05:46.757Z,99651.59
2022-08-23T02:08:33.485Z,99654.00
2022-08-23T02:11:08.970Z,99656.53
2022-08-23T02:13:37.575Z,99664.22
2022-08-23T02:16:08.392Z,99657.56
2022-08-23T02:18:37.304Z,99662.75
2022-08-23T02:23:36.185Z,99660.47
2022-08-23T02:26:07.745Z,99667.22
2022-08-23T02:28:38.124Z,99671.34
2022-08-23T02:31:09.649Z,99668.56
2022-08-23T02:36:31.329Z,99670.84
2022-08-23T02:39:00.996Z,99668.09
2022-08-23T02:41:33.347Z,99673.13
2022-08-23T02:44:04.712Z,99688.56
2022-08-23T02:46:34.104Z,99677.84
2022-08-23T02:49:02.360Z,99679.56
2022-08-23T02:51:31.180Z,99681.09
2022-08-23T02:53:59.606Z,99682.31
2022-08-23T02:56:27.510Z,99688.09
2022-08-23T02:59:00.390Z,99690.13
2022-08-23T03:01:35.913Z,99689.78
2022-08-23T03:04:06.813Z,99700.16
2022-08-23T03:06:35.782Z,99704.59
2022-08-23T03:09:05.826Z,99704.37
2022-08-23T03:11:34.676Z,99701.81
2022-08-23T03:14:05.641Z,99696.87
2022-08-23T03:16:36.392Z,99705.31
2022-08-23T03:19:04.829Z,99700.53
2022-08-23T03:21:32.879Z,99706.63
2022-08-23T03:24:08.044Z,99706.06
2022-08-23T03:26:43.674Z,99702.69
2022-08-23T03:29:12.389Z,99711.09
2022-08-23T03:31:42.978Z,99710.66
2022-08-23T03:34:12.576Z,99714.25
2022-08-23T03:36:43.232Z,99718.59
2022-08-23T03:39:12.377Z,99723.16
2022-08-23T03:41:44.248Z,99720.03
2022-08-23T03:44:17.062Z,99716.78
2022-08-23T03:46:48.699Z,99715.19
2022-08-23T03:49:17.892Z,99722.94
2022-08-23T03:51:50.263Z,99727.37
2022-08-23T03:54:20.625Z,99729.09
2022-08-23T03:56:55.264Z,99728.25
2022-08-23T03:59:24.176Z,99724.97
2022-08-23T04:01:52.285Z,99726.69
2022-08-23T04:04:21.619Z,99729.19
2022-08-23T04:06:51.702Z,99733.94
2022-08-23T04:09:22.803Z,99738.59
2022-08-23T04:11:52.361Z,99746.91
2022-08-23T04:14:23.524Z,99749.13
2022-08-23T04:16:51.879Z,99750.41
2022-08-23T04:19:23.782Z,99739.19
2022-08-23T04:21:54.306Z,99746.56
2022-08-23T04:24:23.516Z,99749.94
2022-08-23T04:26:54.477Z,99748.75
2022-08-23T04:29:34.404Z,99746.81
2022-08-23T04:32:05.573Z,99751.13
2022-08-23T04:34:40.057Z,99744.41
2022-08-23T04:37:10.502Z,99743.44
2022-08-23T04:39:58.111Z,99734.50
2022-08-23T04:42:30.317Z,99736.28
2022-08-23T04:45:01.549Z,99743.09
2022-08-23T04:47:30.186Z,99746.09
2022-08-23T04:50:00.573Z,99757.66
2022-08-23T04:52:29.599Z,99761.75
2022-08-23T04:55:00.573Z,99753.53
2022-08-23T04:57:35.043Z,99757.06
2022-08-23T05:00:04.552Z,99755.09
2022-08-23T05:02:34.520Z,99758.34
2022-08-23T05:05:02.987Z,99767.31
2022-08-23T05:07:42.201Z,99770.44
2022-08-23T05:10:13.632Z,99768.75
2022-08-23T05:12:45.481Z,99774.75
2022-08-23T05:15:16.002Z,99776.22
2022-08-23T05:17:44.703Z,99776.97
2022-08-23T05:20:13.306Z,99778.63
2022-08-23T05:22:43.205Z,99776.34
2022-08-23T05:25:13.217Z,99783.97
2022-08-23T05:30:14.444Z,99777.69
2022-08-23T05:32:49.487Z,99782.59
2022-08-23T05:35:22.500Z,99779.97
2022-08-23T05:37:55.710Z,99780.31
2022-08-23T05:40:27.384Z,99788.63
2022-08-23T05:42:58.194Z,99794.31
2022-08-23T05:45:26.231Z,99796.13
2022-08-23T05:47:55.867Z,99804.97
2022-08-23T05:50:24.183Z,99801.94
2022-08-23T05:52:52.236Z,99810.22
2022-08-23T05:55:34.534Z,99814.31
2022-08-23T05:58:05.624Z,99822.03
2022-08-23T06:00:37.837Z,99820.25
2022-08-23T06:03:14.812Z,99818.44
2022-08-23T06:05:44.066Z,99825.69
2022-08-23T06:08:12.704Z,99830.88
2022-08-23T06:10:42.583Z,99833.63
2022-08-23T06:13:12.083Z,99829.34
2022-08-23T06:15:45.101Z,99835.16
2022-08-23T06:18:14.554Z,99834.50
2022-08-23T06:20:42.618Z,99835.63
2022-08-23T06:23:12.061Z,99839.25
2022-08-23T06:25:40.891Z,99839.09
2022-08-23T06:28:09.568Z,99844.78
2022-08-23T06:30:40.002Z,99847.31
2022-08-23T06:33:10.289Z,99847.78
2022-08-23T06:35:41.756Z,99855.03
2022-08-23T06:38:10.447Z,99848.47
2022-08-23T06:40:42.615Z,99852.00
2022-08-23T06:43:12.330Z,99853.91
2022-08-23T06:45:44.070Z,99864.69
2022-08-23T06:48:21.138Z,99863.50
2022-08-23T06:50:49.616Z,99851.91
2022-08-23T06:53:22.849Z,99861.31
2022-08-23T06:55:51.012Z,99861.34
2022-08-23T06:58:21.179Z,99865.78
2022-08-23T07:00:54.253Z,99866.88
2022-08-23T07:03:26.695Z,99866.63
2022-08-23T07:05:56.803Z,99869.31
2022-08-23T07:08:24.978Z,99869.53
2022-08-23T07:10:57.168Z,99867.97
2022-08-23T07:13:25.969Z,99873.06
2022-08-23T07:16:01.238Z,99873.31
2022-08-23T07:18:30.555Z,99877.28
2022-08-23T07:21:00.291Z,99879.78
2022-08-23T07:23:28.280Z,99883.44
2022-08-23T07:25:56.811Z,99881.63
2022-08-23T07:28:25.912Z,99883.31
2022-08-23T07:30:55.405Z,99881.38
2022-08-23T07:33:24.131Z,99882.09
2022-08-23T07:35:54.668Z,99885.06
2022-08-23T07:38:30.537Z,99887.03
2022-08-23T07:41:00.607Z,99882.00
2022-08-23T07:43:32.279Z,99874.72
2022-08-23T07:46:04.395Z,99881.63
2022-08-23T07:48:52.890Z,99891.16
2022-08-23T07:51:22.141Z,99896.50
2022-08-23T07:53:51.214Z,99896.09
2022-08-23T07:56:21.160Z,99901.97
2022-08-23T07:58:53.756Z,99895.69
2022-08-23T08:01:24.493Z,99896.78
2022-08-23T08:03:55.587Z,99900.81
2022-08-23T08:06:27.749Z,99896.53
2022-08-23T08:08:56.980Z,99897.41
2022-08-23T08:11:34.297Z,99900.81
2022-08-23T08:14:08.746Z,99890.78
2022-08-23T08:16:40.488Z,99899.19
2022-08-23T08:19:12.072Z,99888.47
2022-08-23T08:21:46.178Z,99893.59
2022-08-23T08:24:16.668Z,99897.03
2022-08-23T08:26:45.519Z,99893.59
2022-08-23T08:29:14.219Z,99900.56
2022-08-23T08:31:44.410Z,99890.88
2022-08-23T08:34:13.486Z,99897.50
2022-08-23T08:36:43.536Z,99904.09
2022-08-23T08:39:18.946Z,99911.78
2022-08-23T08:42:04.018Z,99912.34
2022-08-23T08:44:42.977Z,99903.50
2022-08-23T08:47:18.773Z,99912.19
2022-08-23T08:50:06.831Z,99921.03
2022-08-23T08:52:44.202Z,99914.12
2022-08-23T08:55:23.228Z,99913.97
2022-08-23T08:57:55.753Z,99908.87
2022-08-23T09:00:29.113Z,99913.41
2022-08-23T09:03:00.465Z,99907.44
2022-08-23T09:05:34.524Z,99914.03
2022-08-23T09:08:08.524Z,99921.75
2022-08-23T09:10:47.467Z,99916.53
2022-08-23T09:13:31.616Z,99918.63
2022-08-23T09:16:05.919Z,99916.53
2022-08-23T09:18:35.517Z,99922.44
2022-08-23T09:21:06.879Z,99918.94
2022-08-23T09:23:39.181Z,99925.16
2022-08-23T09:26:24.631Z,99915.56
2022-08-23T09:28:59.858Z,99930.66
2022-08-23T09:31:49.062Z,99919.88
2022-08-23T09:34:24.846Z,99919.91
2022-08-23T09:37:06.638Z,99923.97
2022-08-23T09:39:37.050Z,99930.25
2022-08-23T09:42:10.651Z,99937.47
2022-08-23T09:44:41.404Z,99932.00
2022-08-23T09:47:09.774Z,99927.06
2022-08-23T09:49:38.199Z,99930.81
2022-08-23T09:52:24.875Z,99933.66
2022-08-23T09:55:00.079Z,99924.37
2022-08-23T09:57:30.061Z,99918.94
2022-08-23T10:00:23.444Z,99921.62
2022-08-23T10:02:57.630Z,99923.91
2022-08-23T10:05:40.041Z,99923.69
2022-08-23T10:08:10.894Z,99925.72
2022-08-23T10:10:50.715Z,99922.38
2022-08-23T10:13:21.721Z,99917.94
2022-08-23T10:15:58.941Z,99916.00
2022-08-23T10:18:36.161Z,99914.94
2022-08-23T10:21:27.498Z,99919.94
2022-08-23T10:24:12.034Z,99924.75
2022-08-23T10:26:51.605Z,99922.34
2022-08-23T10:29:38.604Z,99925.47
2022-08-23T10:32:35.022Z,99924.47
2022-08-23T10:35:23.006Z,99923.06
2022-08-23T10:37:54.552Z,99923.19
2022-08-23T10:40:34.996Z,99925.75
2022-08-23T10:43:30.896Z,99924.63
2022-08-23T10:46:02.953Z,99915.88
2022-08-23T10:48:38.457Z,99918.28
2022-08-23T10:51:22.572Z,99926.44
2022-08-23T10:54:06.450Z,99918.28
2022-08-23T10:56:36.306Z,99921.88
2022-08-23T10:59:17.351Z,99925.16
2022-08-23T11:02:01.639Z,99919.09
2022-08-23T11:04:37.221Z,99921.22
2022-08-23T11:07:21.101Z,99922.59
2022-08-23T11:10:17.274Z,99915.56
2022-08-23T11:13:13.665Z,99920.78
2022-08-23T11:16:16.101Z,99916.66
2022-08-23T11:18:51.313Z,99917.28
2022-08-23T11:21:19.403Z,99923.00
2022-08-23T11:23:59.729Z,99921.47
2022-08-23T11:26:27.949Z,99918.22
2022-08-23T11:29:25.123Z,99920.03
2022-08-23T11:32:06.966Z,99910.41
2022-08-23T11:34:36.136Z,99903.38
2022-08-23T11:37:20.656Z,99911.06
2022-08-23T11:39:58.445Z,99906.31
2022-08-23T11:42:29.706Z,99911.28
2022-08-23T11:44:57.814Z,99905.84
2022-08-23T11:47:40.135Z,99914.91
2022-08-23T11:50:23.524Z,99914.19
2022-08-23T11:53:06.748Z,99914.03
2022-08-23T11:56:05.339Z,99914.72
2022-08-23T11:59:13.068Z,99919.47
2022-08-23T12:01:42.208Z,99922.47
2022-08-23T12:04:15.271Z,99923.75
2022-08-23T12:06:50.954Z,99915.78
2022-08-23T12:09:22.411Z,99914.78
2022-08-23T12:11:56.170Z,99919.00
2022-08-23T12:14:30.828Z,99925.13
2022-08-23T12:17:04.396Z,99917.72
2022-08-23T12:19:40.323Z,99914.41
2022-08-23T12:22:12.753Z,99917.25
2022-08-23T12:24:47.129Z,99911.63
2022-08-23T12:27:20.940Z,99916.22
2022-08-23T12:30:12.311Z,99913.88
2022-08-23T12:32:58.767Z,99917.66
2022-08-23T12:35:49.283Z,99909.94
2022-08-23T12:38:31.136Z,99904.91
2022-08-23T12:41:14.057Z,99922.22
2022-08-23T12:43:55.996Z,99907.41
2022-08-23T12:46:35.938Z,99913.62
2022-08-23T12:49:05.671Z,99909.06
2022-08-23T12:51:41.970Z,99915.38
2022-08-23T12:54:16.570Z,99914.25
2022-08-23T12:56:50.528Z,99922.13
2022-08-23T12:59:44.433Z,99924.28
2022-08-23T13:02:19.305Z,99920.41
2022-08-23T13:04:47.055Z,99924.41
2022-08-23T13:07:20.293Z,99923.13
2022-08-23T13:09:53.910Z,99921.84
2022-08-23T13:12:24.495Z,99924.50
2022-08-23T13:14:55.035Z,99927.88
2022-08-23T13:17:26.390Z,99925.97
2022-08-23T13:20:13.561Z,99919.44
2022-08-23T13:23:17.540Z,99925.81
2022-08-23T13:25:45.307Z,99921.25
2022-08-23T13:28:28.296Z,99920.13
2022-08-23T13:31:09.548Z,99923.00
2022-08-23T13:33:42.007Z,99923.72
2022-08-23T13:36:23.911Z,99925.19
2022-08-23T13:38:56.557Z,99916.44
2022-08-23T13:41:38.703Z,99913.25
2022-08-23T13:44:28.633Z,99915.31
2022-08-23T13:46:56.807Z,99918.31
2022-08-23T13:49:28.858Z,99909.25
2022-08-23T13:54:54.765Z,99918.06
2022-08-23T13:57:31.534Z,99918.41
2022-08-23T14:00:22.761Z,99922.44
2022-08-23T14:03:07.854Z,99922.91
2022-08-23T14:05:57.917Z,99923.38
2022-08-23T14:08:28.409Z,99920.19
2022-08-23T14:10:56.328Z,99921.06
2022-08-23T14:13:36.185Z,99916.97
2022-08-23T14:16:39.750Z,99910.44
2022-08-23T14:19:16.938Z,99915.84
2022-08-23T14:22:10.001Z,99927.25
2022-08-23T14:24:45.662Z,99922.06
2022-08-23T14:27:37.216Z,99923.19
2022-08-23T14:30:23.358Z,99916.34
2022-08-23T14:32:55.949Z,99919.34
2022-08-23T14:38:50.037Z,99917.84
2022-08-23T14:41:22.737Z,99912.91
2022-08-23T14:43:55.610Z,99913.66
2022-08-23T14:46:24.340Z,99911.75
2022-08-23T14:48:52.342Z,99917.56
2022-08-23T14:51:23.425Z,99911.00
2022-08-23T14:53:52.676Z,99904.72
2022-08-23T14:56:21.959Z,99902.44
2022-08-23T14:58:50.652Z,99903.34
2022-08-23T15:01:19.479Z,99909.78
2022-08-23T15:03:48.636Z,99907.75
2022-08-23T15:06:19.106Z,99904.66
2022-08-23T15:08:48.576Z,99911.72
2022-08-23T15:14:08.105Z,99901.22
2022-08-23T15:16:36.085Z,99907.75
2022-08-23T15:19:04.922Z,99894.28
2022-08-23T15:21:33.318Z,99895.16
2022-08-23T15:24:01.222Z,99895.25
2022-08-23T15:26:33.923Z,99895.19
2022-08-23T15:29:05.132Z,99895.53
2022-08-23T15:31:33.741Z,99898.56
2022-08-23T15:34:07.344Z,99894.59
2022-08-23T15:36:42.281Z,99889.22
2022-08-23T15:39:13.586Z,99895.44
2022-08-23T15:41:45.296Z,99904.09
2022-08-23T15:44:17.270Z,99907.09
2022-08-23T15:46:47.656Z,99898.19
2022-08-23T15:49:17.702Z,99905.78
2022-08-23T15:51:49.964Z,99897.06
2022-08-23T15:54:21.776Z,99907.28
2022-08-23T15:56:50.577Z,99914.00
2022-08-23T15:59:19.764Z,99916.69
2022-08-23T16:01:48.639Z,99918.84
2022-08-23T16:04:18.922Z,99915.81
2022-08-23T16:06:49.544Z,99923.72
2022-08-23T16:09:22.353Z,99922.50
2022-08-23T16:11:51.397Z,99920.34
2022-08-23T16:14:20.181Z,99919.16
2022-08-23T16:16:48.567Z,99919.50
2022-08-23T16:19:16.948Z,99927.00
2022-08-23T16:21:45.823Z,99926.19
2022-08-23T16:24:14.468Z,99930.84
2022-08-23T16:26:45.409Z,99935.88
2022-08-23T16:29:17.397Z,99936.88
2022-08-23T16:31:46.258Z,99932.81
2022-08-23T16:34:20.239Z,99934.78
2022-08-23T16:36:59.254Z,99932.94
2022-08-23T16:39:28.919Z,99927.66
2022-08-23T16:41:57.138Z,99925.03
2022-08-23T16:44:25.169Z,99920.69
2022-08-23T16:46:54.389Z,99919.66
2022-08-23T16:49:22.472Z,99926.16
2022-08-23T16:51:50.946Z,99930.91
2022-08-23T16:54:19.526Z,99927.25
2022-08-23T16:56:48.646Z,99923.28
2022-08-23T16:59:20.002Z,99921.81
2022-08-23T17:01:52.275Z,99923.47
2022-08-23T17:04:30.626Z,99927.09
2022-08-23T17:07:01.837Z,99936.72
2022-08-23T17:09:30.495Z,99936.50
2022-08-23T17:11:58.725Z,99938.81
2022-08-23T17:14:27.064Z,99946.06
2022-08-23T17:16:55.525Z,99945.72
2022-08-23T17:19:23.667Z,99956.34
2022-08-23T17:21:52.082Z,99950.47
2022-08-23T17:24:19.866Z,99954.53
2022-08-23T17:26:48.816Z,99961.31
2022-08-23T17:29:17.017Z,99963.63
2022-08-23T17:31:48.868Z,99971.16
2022-08-23T17:34:17.437Z,99973.88
2022-08-23T17:36:51.892Z,99978.53
2022-08-23T17:39:27.411Z,99987.69
2022-08-23T17:41:58.871Z,99992.41
2022-08-23T17:44:27.183Z,99989.84
2022-08-23T17:46:55.191Z,100000.88
2022-08-23T17:49:23.252Z,100007.50
2022-08-23T17:51:51.835Z,100003.66
2022-08-23T17:54:19.781Z,100009.56
2022-08-23T17:56:50.659Z,100014.31
2022-08-23T17:59:19.889Z,100013.84
2022-08-23T18:01:48.127Z,100017.31
2022-08-23T18:04:16.360Z,100020.31
2022-08-23T18:06:46.527Z,100022.41
2022-08-23T18:09:14.648Z,100021.66
2022-08-23T18:11:43.640Z,100026.44
2022-08-23T18:14:12.265Z,100045.19
2022-08-23T18:16:40.338Z,100046.81
2022-08-23T18:19:14.174Z,100049.59
2022-08-23T18:21:43.131Z,100055.13
2022-08-23T18:24:11.717Z,100065.84
2022-08-23T18:26:59.327Z,100073.56
2022-08-23T18:29:29.543Z,100071.78
2022-08-23T18:31:58.393Z,100075.84
2022-08-23T18:34:27.129Z,100083.16
2022-08-23T18:36:55.937Z,100085.13
2022-08-23T18:39:31.593Z,100081.69
2022-08-23T18:42:01.855Z,100091.91
2022-08-23T18:44:31.063Z,100088.13
2022-08-23T18:47:01.320Z,100093.69
2022-08-23T18:49:32.513Z,100086.66
2022-08-23T18:52:02.354Z,100095.34
2022-08-23T18:54:34.018Z,100086.47
2022-08-23T18:57:04.718Z,100086.75
2022-08-23T18:59:33.602Z,100082.97
2022-08-23T19:02:02.280Z,100090.66
2022-08-23T19:04:30.683Z,100076.91
2022-08-23T19:06:59.876Z,100088.97
2022-08-23T19:09:27.852Z,100074.47
2022-08-23T19:11:56.877Z,100074.22
2022-08-23T19:14:27.904Z,100074.25
2022-08-23T19:16:56.304Z,100071.44
2022-08-23T19:19:42.951Z,100077.37
2022-08-23T19:22:11.000Z,100072.88
2022-08-23T19:24:41.138Z,100072.59
2022-08-23T19:27:09.605Z,100071.00
2022-08-23T19:29:37.774Z,100069.81
2022-08-23T19:32:07.530Z,100070.47
2022-08-23T19:34:36.251Z,100080.28
2022-08-23T19:37:05.496Z,100082.94
2022-08-23T19:39:39.150Z,100089.31
2022-08-23T19:42:11.554Z,100100.50
2022-08-23T19:44:42.377Z,100101.94
2022-08-23T19:47:19.591Z,100108.31
2022-08-23T19:49:49.158Z,100104.03
2022-08-23T19:52:17.809Z,100109.47
2022-08-23T19:54:46.899Z,100097.22
2022-08-23T19:57:16.129Z,100098.34
2022-08-23T19:59:45.036Z,100096.12
2022-08-23T20:02:14.645Z,100092.59
2022-08-23T20:04:43.476Z,100095.13
2022-08-23T20:07:12.374Z,100096.53
2022-08-23T20:09:40.996Z,100094.28
2022-08-23T20:12:10.108Z,100090.75
2022-08-23T20:14:39.686Z,100094.16
2022-08-23T20:17:08.622Z,100095.03
2022-08-23T20:19:45.039Z,100090.78
2022-08-23T20:22:55.039Z,100095.59
2022-08-23T20:25:30.408Z,100101.19
2022-08-23T20:28:00.265Z,100092.97
2022-08-23T20:30:31.740Z,100095.09
2022-08-23T20:33:02.360Z,100094.72
2022-08-23T20:35:31.513Z,100092.00
2022-08-23T20:37:59.991Z,100089.72
2022-08-23T20:40:28.306Z,100096.00
2022-08-23T20:42:57.580Z,100096.97
2022-08-23T20:45:25.675Z,100093.31
2022-08-23T20:47:53.341Z,100093.16
2022-08-23T20:50:21.687Z,100085.72
2022-08-23T20:52:49.685Z,100081.63
2022-08-23T20:55:18.488Z,100076.94
2022-08-23T20:57:47.079Z,100072.31
2022-08-23T21:00:15.193Z,100078.38
2022-08-23T21:02:43.254Z,100077.28
2022-08-23T21:05:11.699Z,100086.41
2022-08-23T21:07:39.938Z,100099.00
2022-08-23T21:10:10.366Z,100095.88
2022-08-23T21:12:39.444Z,100086.62
2022-08-23T21:15:10.925Z,100078.16
2022-08-23T21:17:40.568Z,100083.47
2022-08-23T21:20:09.345Z,100082.41
2022-08-23T21:22:37.570Z,100087.72
2022-08-23T21:25:06.335Z,100081.84
2022-08-23T21:27:35.328Z,100080.06
2022-08-23T21:30:05.757Z,100077.56
2022-08-23T21:32:34.444Z,100077.41
2022-08-23T21:35:02.631Z,100075.16
2022-08-23T21:37:31.507Z,100076.47
2022-08-23T21:39:59.918Z,100071.47
2022-08-23T21:42:28.309Z,100078.00
2022-08-23T21:44:56.903Z,100076.75
2022-08-23T21:47:26.230Z,100073.75
2022-08-23T21:49:54.516Z,100082.28
2022-08-23T21:52:24.348Z,100074.06
2022-08-23T21:54:53.688Z,100083.53
2022-08-23T21:57:21.813Z,100086.94
2022-08-23T21:59:49.712Z,100084.25
2022-08-23T22:02:19.548Z,100083.56
2022-08-23T22:04:50.504Z,100080.38
2022-08-23T22:07:18.813Z,100084.97
2022-08-23T22:10:07.012Z,100080.03
2022-08-23T22:12:40.242Z,100071.81
2022-08-23T22:15:10.626Z,100073.41
2022-08-23T22:17:46.174Z,100064.44
2022-08-23T22:20:15.720Z,100069.00
2022-08-23T22:22:49.943Z,100068.41
2022-08-23T22:25:19.471Z,100071.91
2022-08-23T22:27:49.781Z,100072.59
2022-08-23T22:30:19.356Z,100063.06
2022-08-23T22:32:51.559Z,100059.78
2022-08-23T22:35:24.434Z,100062.59
2022-08-23T22:38:12.649Z,100047.84
2022-08-23T22:40:56.012Z,100046.97
2022-08-23T22:43:27.682Z,100048.88
2022-08-23T22:45:58.779Z,100042.31
2022-08-23T22:48:31.759Z,100037.00
2022-08-23T22:51:07.113Z,100035.69
2022-08-23T22:53:59.269Z,100021.38
2022-08-23T22:56:33.785Z,100013.84
2022-08-23T22:59:03.465Z,100010.78
2022-08-23T23:01:39.349Z,100010.09
2022-08-23T23:04:14.271Z,100013.50
2022-08-23T23:06:44.041Z,100008.41
2022-08-23T23:09:16.245Z,100006.94
2022-08-23T23:11:47.969Z,100008.00
2022-08-23T23:14:19.897Z,100003.31
2022-08-23T23:16:53.787Z,100006.63
2022-08-23T23:19:45.918Z,100008.16
2022-08-23T23:22:15.665Z,100011.53
2022-08-23T23:24:48.511Z,100013.78
2022-08-23T23:27:17.645Z,100015.59
2022-08-23T23:29:48.167Z,100011.19
2022-08-23T23:32:21.788Z,100017.59
2022-08-23T23:34:55.053Z,100018.03
2022-08-23T23:37:26.705Z,100025.69
2022-08-23T23:39:56.416Z,100021.75
2022-08-23T23:42:28.452Z,100025.75
2022-08-23T23:45:02.601Z,100025.91
2022-08-23T23:47:33.951Z,100030.03
2022-08-23T23:50:07.347Z,100029.84
2022-08-23T23:52:39.575Z,100017.84
2022-08-23T23:55:19.705Z,100022.69
2022-08-23T23:57:50.368Z,100023.34
